createdAt,value
2023-01-07T00:01:44.681Z,7.70
2023-01-07T00:05:09.109Z,8.23
2023-01-07T00:08:36.022Z,8.20
2023-01-07T00:11:59.538Z,7.00
2023-01-07T00:15:23.105Z,6.63
2023-01-07T00:18:47.271Z,6.13
2023-01-07T00:22:10.846Z,6.00
2023-01-07T00:25:35.710Z,7.93
2023-01-07T00:28:59.988Z,7.80
2023-01-07T00:32:43.824Z,6.40
2023-01-07T00:36:09.249Z,6.03
2023-01-07T00:39:32.766Z,5.63
2023-01-07T00:43:02.370Z,6.93
2023-01-07T00:46:25.972Z,4.83
2023-01-07T00:49:49.510Z,5.27
2023-01-07T00:53:13.851Z,6.60
2023-01-07T00:56:37.397Z,6.20
2023-01-07T01:00:02.916Z,6.23
2023-01-07T01:03:27.649Z,7.00
2023-01-07T01:06:51.211Z,6.37
2023-01-07T01:10:17.558Z,5.20
2023-01-07T01:13:41.314Z,4.40
2023-01-07T01:17:06.263Z,5.13
2023-01-07T01:20:29.769Z,5.40
2023-01-07T01:23:53.439Z,6.03
2023-01-07T01:27:17.177Z,4.93
2023-01-07T01:30:40.728Z,5.90
2023-01-07T01:34:07.067Z,5.10
2023-01-07T01:37:31.381Z,4.90
2023-01-07T01:40:55.376Z,6.60
2023-01-07T01:44:38.217Z,5.77
2023-01-07T01:48:07.492Z,5.47
2023-01-07T01:51:37.935Z,5.40
2023-01-07T01:55:03.832Z,4.63
2023-01-07T01:58:33.010Z,5.40
2023-01-07T02:02:00.819Z,4.93
2023-01-07T02:05:27.137Z,3.90
2023-01-07T02:08:52.089Z,5.13
2023-01-07T02:12:27.007Z,5.80
2023-01-07T02:15:58.176Z,5.17
2023-01-07T02:20:04.459Z,5.57
2023-01-07T02:24:18.139Z,5.47
2023-01-07T02:28:12.808Z,4.50
2023-01-07T02:32:13.635Z,4.33
2023-01-07T02:35:53.135Z,3.50
2023-01-07T02:39:31.276Z,4.10
2023-01-07T02:43:03.837Z,4.00
2023-01-07T02:46:31.946Z,3.40
2023-01-07T02:49:57.520Z,3.30
2023-01-07T02:53:22.030Z,2.97
2023-01-07T02:57:14.492Z,2.77
2023-01-07T03:00:56.752Z,2.80
2023-01-07T03:04:33.840Z,2.67
2023-01-07T03:08:10.890Z,2.67
2023-01-07T03:11:42.407Z,2.40
2023-01-07T03:15:12.512Z,3.10
2023-01-07T03:18:40.084Z,2.80
2023-01-07T03:22:08.821Z,2.73
2023-01-07T03:25:36.541Z,2.40
2023-01-07T03:29:02.863Z,2.80
2023-01-07T03:32:32.654Z,2.67
2023-01-07T03:36:00.179Z,2.80
2023-01-07T03:39:27.913Z,2.27
2023-01-07T03:42:55.643Z,2.30
2023-01-07T03:46:20.727Z,1.87
2023-01-07T03:49:44.991Z,2.20
2023-01-07T03:53:08.857Z,2.17
2023-01-07T03:56:34.748Z,2.40
2023-01-07T03:59:59.772Z,1.93
2023-01-07T04:03:23.524Z,1.93
2023-01-07T04:06:47.196Z,2.37
2023-01-07T04:10:11.579Z,1.60
2023-01-07T04:13:35.240Z,1.70
2023-01-07T04:17:00.437Z,1.70
2023-01-07T04:20:24.176Z,2.03
2023-01-07T04:23:47.830Z,2.23
2023-01-07T04:27:11.596Z,2.87
2023-01-07T04:30:35.828Z,1.70
2023-01-07T04:34:00.900Z,2.00
2023-01-07T04:37:24.526Z,2.00
2023-01-07T04:40:48.068Z,1.80
2023-01-07T04:44:12.996Z,1.90
2023-01-07T04:47:36.570Z,1.90
2023-01-07T04:51:01.996Z,1.80
2023-01-07T04:54:25.645Z,2.00
2023-01-07T04:57:49.373Z,1.80
2023-01-07T05:01:14.627Z,2.13
2023-01-07T05:04:39.536Z,1.80
2023-01-07T05:08:05.480Z,1.60
2023-01-07T05:11:29.147Z,1.70
2023-01-07T05:14:55.090Z,1.77
2023-01-07T05:18:19.185Z,2.20
2023-01-07T05:21:42.755Z,1.97
2023-01-07T05:25:10.061Z,2.13
2023-01-07T05:28:33.786Z,2.20
2023-01-07T05:31:58.516Z,2.33
2023-01-07T05:35:22.704Z,2.10
2023-01-07T05:38:46.384Z,2.07
2023-01-07T05:42:11.263Z,2.00
2023-01-07T05:45:36.118Z,2.23
2023-01-07T05:48:59.615Z,1.80
2023-01-07T05:52:23.190Z,2.00
2023-01-07T05:55:47.398Z,1.93
2023-01-07T05:59:12.332Z,2.30
2023-01-07T06:02:35.870Z,2.63
2023-01-07T06:06:06.837Z,2.30
2023-01-07T06:09:30.690Z,2.17
2023-01-07T06:12:54.242Z,1.77
2023-01-07T06:16:19.209Z,2.10
2023-01-07T06:19:42.951Z,2.10
2023-01-07T06:23:06.533Z,3.00
2023-01-07T06:26:30.075Z,2.50
2023-01-07T06:29:53.778Z,2.20
2023-01-07T06:33:18.772Z,2.37
2023-01-07T06:36:42.303Z,2.20
2023-01-07T06:40:07.372Z,2.20
2023-01-07T06:43:31.350Z,2.63
2023-01-07T06:46:55.001Z,1.93
2023-01-07T06:50:20.141Z,2.13
2023-01-07T06:53:43.731Z,2.17
2023-01-07T06:57:07.278Z,2.67
2023-01-07T07:00:31.005Z,2.20
2023-01-07T07:03:54.581Z,2.37
2023-01-07T07:07:19.763Z,3.07
2023-01-07T07:10:43.430Z,2.50
2023-01-07T07:14:07.046Z,1.93
2023-01-07T07:17:30.792Z,2.20
2023-01-07T07:20:54.622Z,2.30
2023-01-07T07:24:19.745Z,2.63
2023-01-07T07:27:46.286Z,2.53
2023-01-07T07:31:10.515Z,3.17
2023-01-07T07:34:35.816Z,2.50
2023-01-07T07:37:59.690Z,3.03
2023-01-07T07:41:24.742Z,2.77
2023-01-07T07:44:48.364Z,2.60
2023-01-07T07:48:14.765Z,2.33
2023-01-07T07:51:38.329Z,2.40
2023-01-07T07:55:20.162Z,2.73
2023-01-07T07:58:46.912Z,2.30
2023-01-07T08:02:13.549Z,2.20
2023-01-07T08:05:41.235Z,2.27
2023-01-07T08:09:05.127Z,2.63
2023-01-07T08:12:28.749Z,2.83
2023-01-07T08:15:53.674Z,2.07
2023-01-07T08:19:17.330Z,2.20
2023-01-07T08:22:41.237Z,2.47
2023-01-07T08:26:05.505Z,2.60
2023-01-07T08:29:29.906Z,2.40
2023-01-07T08:32:55.034Z,2.73
2023-01-07T08:36:23.075Z,2.83
2023-01-07T08:39:46.959Z,2.80
2023-01-07T08:43:10.547Z,2.67
2023-01-07T08:46:34.175Z,2.20
2023-01-07T08:49:59.672Z,2.30
2023-01-07T08:53:24.191Z,3.00
2023-01-07T08:56:47.821Z,2.10
2023-01-07T09:00:14.428Z,2.80
2023-01-07T09:03:39.940Z,3.23
2023-01-07T09:07:05.010Z,2.40
2023-01-07T09:10:28.547Z,2.90
2023-01-07T09:13:52.100Z,3.00
2023-01-07T09:17:15.672Z,2.57
2023-01-07T09:20:39.232Z,2.83
2023-01-07T09:24:04.284Z,2.90
2023-01-07T09:27:28.161Z,2.90
2023-01-07T09:30:51.917Z,2.83
2023-01-07T09:34:15.457Z,2.27
2023-01-07T09:37:39.077Z,2.53
2023-01-07T09:41:04.177Z,2.90
2023-01-07T09:44:53.744Z,2.90
2023-01-07T09:48:23.761Z,2.73
2023-01-07T09:51:51.899Z,3.10
2023-01-07T09:55:20.724Z,2.97
2023-01-07T09:58:48.424Z,2.70
2023-01-07T10:02:27.312Z,3.10
2023-01-07T10:06:02.284Z,2.80
2023-01-07T10:09:36.356Z,3.03
2023-01-07T10:13:13.643Z,2.80
2023-01-07T10:16:46.456Z,2.50
2023-01-07T10:20:18.521Z,3.13
2023-01-07T10:23:44.657Z,2.90
2023-01-07T10:27:12.705Z,2.97
2023-01-07T10:30:41.839Z,3.30
2023-01-07T10:34:15.286Z,3.00
2023-01-07T10:37:40.421Z,3.23
2023-01-07T10:41:11.112Z,2.87
2023-01-07T10:45:11.915Z,3.43
2023-01-07T10:48:52.721Z,2.90
2023-01-07T10:52:31.922Z,3.40
2023-01-07T10:56:05.266Z,3.03
2023-01-07T10:59:28.996Z,3.40
2023-01-07T11:02:57.552Z,3.47
2023-01-07T11:06:27.620Z,3.30
2023-01-07T11:09:54.533Z,3.33
2023-01-07T11:13:23.416Z,3.20
2023-01-07T11:16:52.386Z,3.37
2023-01-07T11:20:42.345Z,3.17
2023-01-07T11:24:30.892Z,3.37
2023-01-07T11:27:58.471Z,3.17
2023-01-07T11:31:43.353Z,2.63
2023-01-07T11:35:18.855Z,2.50
2023-01-07T11:38:43.653Z,2.97
2023-01-07T11:42:34.775Z,2.47
2023-01-07T11:46:19.404Z,2.70
2023-01-07T11:49:46.519Z,2.33
2023-01-07T11:53:28.904Z,2.67
2023-01-07T11:56:55.149Z,2.90
2023-01-07T12:00:19.854Z,2.80
2023-01-07T12:03:46.799Z,3.00
2023-01-07T12:07:16.054Z,2.90
2023-01-07T12:10:40.404Z,2.40
2023-01-07T12:14:08.622Z,3.40
2023-01-07T12:17:35.204Z,3.23
2023-01-07T12:21:23.161Z,3.10
2023-01-07T12:25:02.760Z,3.17
2023-01-07T12:28:35.253Z,2.83
2023-01-07T12:32:14.238Z,3.00
2023-01-07T12:35:41.856Z,3.00
2023-01-07T12:39:13.876Z,3.10
2023-01-07T12:42:40.375Z,3.30
2023-01-07T12:46:06.024Z,3.20
2023-01-07T12:49:34.895Z,3.47
2023-01-07T12:53:04.074Z,3.63
2023-01-07T12:56:33.233Z,3.30
2023-01-07T13:00:06.005Z,3.57
2023-01-07T13:03:46.317Z,3.30
2023-01-07T13:07:17.336Z,2.87
2023-01-07T13:10:42.479Z,3.57
2023-01-07T13:14:14.457Z,3.60
2023-01-07T13:17:38.160Z,3.80
2023-01-07T13:21:07.974Z,3.37
2023-01-07T13:24:56.500Z,2.97
2023-01-07T13:28:46.271Z,3.00
2023-01-07T13:32:24.620Z,3.20
2023-01-07T13:36:01.205Z,2.93
2023-01-07T13:39:45.167Z,3.00
2023-01-07T13:43:27.408Z,3.40
2023-01-07T13:46:51.637Z,4.03
2023-01-07T13:50:23.305Z,3.30
2023-01-07T13:53:48.255Z,3.43
2023-01-07T13:57:45.372Z,3.60
2023-01-07T14:01:10.696Z,3.53
2023-01-07T14:04:35.885Z,3.60
2023-01-07T14:08:03.444Z,3.40
2023-01-07T14:11:47.891Z,3.50
2023-01-07T14:15:44.825Z,3.57
2023-01-07T14:19:15.219Z,3.70
2023-01-07T14:22:46.503Z,3.60
2023-01-07T14:26:21.765Z,3.60
2023-01-07T14:29:48.162Z,3.40
2023-01-07T14:33:20.100Z,3.10
2023-01-07T14:37:11.544Z,3.27
2023-01-07T14:41:03.711Z,4.77
2023-01-07T14:44:30.701Z,3.57
2023-01-07T14:47:55.439Z,3.00
2023-01-07T14:51:37.058Z,3.60
2023-01-07T14:55:35.338Z,3.20
2023-01-07T14:59:24.409Z,3.43
2023-01-07T15:03:17.449Z,2.93
2023-01-07T15:06:41.957Z,3.87
2023-01-07T15:10:35.967Z,3.20
2023-01-07T15:14:22.204Z,3.13
2023-01-07T15:17:45.928Z,3.23
2023-01-07T15:21:20.443Z,2.83
2023-01-07T15:24:51.581Z,3.47
2023-01-07T15:28:22.329Z,4.03
2023-01-07T15:31:53.793Z,3.87
2023-01-07T15:35:19.923Z,3.57
2023-01-07T15:38:50.177Z,3.20
2023-01-07T15:42:17.095Z,3.13
2023-01-07T15:45:41.593Z,3.27
2023-01-07T15:49:23.847Z,3.60
2023-01-07T15:52:50.037Z,3.40
2023-01-07T15:56:20.151Z,3.33
2023-01-07T15:59:46.387Z,3.30
2023-01-07T16:03:16.739Z,3.63
2023-01-07T16:06:45.387Z,3.27
2023-01-07T16:10:20.556Z,3.00
2023-01-07T16:13:56.731Z,3.60
2023-01-07T16:17:20.794Z,3.00
2023-01-07T16:20:53.065Z,3.70
2023-01-07T16:24:17.544Z,3.87
2023-01-07T16:27:42.344Z,3.53
2023-01-07T16:31:11.353Z,4.30
2023-01-07T16:35:00.275Z,3.97
2023-01-07T16:38:24.314Z,4.37
2023-01-07T16:41:48.305Z,4.97
2023-01-07T16:45:25.380Z,4.17
2023-01-07T16:49:17.106Z,4.53
2023-01-07T16:52:50.799Z,4.60
2023-01-07T16:56:17.359Z,5.10
2023-01-07T16:59:45.245Z,5.20
2023-01-07T17:03:13.310Z,4.33
2023-01-07T17:06:42.389Z,4.83
2023-01-07T17:10:20.466Z,5.23
2023-01-07T17:13:44.084Z,4.83
2023-01-07T17:17:21.201Z,4.40
2023-01-07T17:20:48.563Z,5.30
2023-01-07T17:24:42.675Z,5.10
2023-01-07T17:28:12.216Z,5.13
2023-01-07T17:31:39.677Z,5.23
2023-01-07T17:35:05.347Z,5.03
2023-01-07T17:38:30.895Z,5.90
2023-01-07T17:42:22.712Z,4.90
2023-01-07T17:45:47.616Z,4.80
2023-01-07T17:49:14.786Z,5.03
2023-01-07T17:52:39.643Z,5.60
2023-01-07T17:56:05.591Z,5.10
2023-01-07T17:59:31.636Z,4.83
2023-01-07T18:02:56.128Z,5.50
2023-01-07T18:06:22.758Z,5.23
2023-01-07T18:09:47.232Z,5.40
2023-01-07T18:13:11.373Z,5.20
2023-01-07T18:16:36.924Z,5.57
2023-01-07T18:20:00.658Z,5.10
2023-01-07T18:23:25.384Z,4.60
2023-01-07T18:26:49.463Z,5.30
2023-01-07T18:30:16.340Z,5.20
2023-01-07T18:33:42.252Z,5.47
2023-01-07T18:37:05.874Z,6.17
2023-01-07T18:40:31.970Z,5.40
2023-01-07T18:43:55.722Z,5.23
2023-01-07T18:47:19.481Z,6.03
2023-01-07T18:50:47.204Z,5.43
2023-01-07T18:54:11.112Z,5.47
2023-01-07T18:57:34.764Z,5.30
2023-01-07T19:01:03.367Z,5.40
2023-01-07T19:04:27.740Z,5.60
2023-01-07T19:07:55.206Z,4.40
2023-01-07T19:11:18.814Z,4.97
2023-01-07T19:14:46.070Z,5.60
2023-01-07T19:18:10.593Z,5.27
2023-01-07T19:21:34.167Z,5.07
2023-01-07T19:24:59.113Z,5.90
2023-01-07T19:28:22.679Z,4.80
2023-01-07T19:31:46.746Z,4.90
2023-01-07T19:35:10.913Z,5.10
2023-01-07T19:38:34.622Z,5.50
2023-01-07T19:41:59.667Z,6.63
2023-01-07T19:45:23.387Z,6.90
2023-01-07T19:48:48.832Z,4.60
2023-01-07T19:52:13.479Z,6.40
2023-01-07T19:55:37.694Z,5.40
2023-01-07T19:59:03.059Z,4.87
2023-01-07T20:02:27.059Z,5.27
2023-01-07T20:05:50.771Z,4.87
2023-01-07T20:09:14.419Z,5.07
2023-01-07T20:12:37.989Z,5.57
2023-01-07T20:16:16.820Z,5.80
2023-01-07T20:19:42.725Z,4.63
2023-01-07T20:23:08.050Z,5.07
2023-01-07T20:26:41.071Z,5.93
2023-01-07T20:30:06.903Z,4.77
2023-01-07T20:33:35.737Z,5.20
2023-01-07T20:37:02.076Z,5.77
2023-01-07T20:40:35.386Z,4.90
2023-01-07T20:44:02.147Z,5.43
2023-01-07T20:47:32.326Z,4.23
2023-01-07T20:51:00.533Z,4.73
2023-01-07T20:54:32.861Z,5.40
2023-01-07T20:57:59.222Z,5.70
2023-01-07T21:01:23.236Z,4.17
2023-01-07T21:04:51.235Z,4.90
2023-01-07T21:08:19.634Z,4.00
2023-01-07T21:11:44.717Z,5.70
2023-01-07T21:15:19.826Z,5.27
2023-01-07T21:18:45.192Z,5.20
2023-01-07T21:22:11.223Z,5.13
2023-01-07T21:25:40.607Z,5.70
2023-01-07T21:29:06.411Z,5.30
2023-01-07T21:32:39.618Z,4.83
2023-01-07T21:36:08.583Z,4.53
2023-01-07T21:39:33.497Z,4.77
2023-01-07T21:43:04.531Z,6.27
2023-01-07T21:46:30.323Z,5.47
2023-01-07T21:49:56.989Z,5.70
2023-01-07T21:53:23.059Z,5.00
2023-01-07T21:56:47.744Z,4.80
2023-01-07T22:00:23.764Z,4.70
2023-01-07T22:03:50.763Z,5.37
2023-01-07T22:07:19.046Z,5.30
2023-01-07T22:10:48.901Z,5.10
2023-01-07T22:14:14.301Z,5.40
2023-01-07T22:17:41.912Z,5.20
2023-01-07T22:21:08.906Z,5.20
2023-01-07T22:24:36.197Z,4.70
2023-01-07T22:28:01.691Z,4.53
2023-01-07T22:31:27.958Z,5.30
2023-01-07T22:34:53.255Z,5.90
2023-01-07T22:38:27.031Z,4.63
2023-01-07T22:41:55.413Z,5.53
2023-01-07T22:45:28.505Z,4.70
2023-01-07T22:48:58.914Z,5.23
2023-01-07T22:52:24.468Z,4.43
2023-01-07T22:55:49.851Z,4.60
2023-01-07T22:59:13.956Z,4.90
2023-01-07T23:02:40.304Z,4.47
2023-01-07T23:06:04.271Z,5.60
2023-01-07T23:09:29.425Z,5.03
2023-01-07T23:12:57.936Z,5.13
2023-01-07T23:16:21.793Z,5.70
2023-01-07T23:19:45.804Z,4.83
2023-01-07T23:23:12.808Z,4.80
2023-01-07T23:26:41.906Z,4.17
2023-01-07T23:30:14.228Z,4.30
2023-01-07T23:33:38.180Z,3.87
2023-01-07T23:37:02.082Z,4.30
2023-01-07T23:40:26.214Z,5.00
2023-01-07T23:43:51.736Z,5.17
2023-01-07T23:47:15.322Z,4.23
2023-01-07T23:50:41.192Z,5.10
2023-01-07T23:54:05.271Z,4.80
2023-01-07T23:57:29.453Z,4.90
